La Esperanza, Honduras
Current Conditions -  °F | °C
As of 9:58 PM on Tuesday 21 Oct 2014 (Local Time) from MHSC Reporting Station
Clear Clear  
Wind Chill: 73°   Ceiling: Unl
Heat Index: 73°   Visibility: 6mi
Dew Point: 72°   Wind: 9mph
Humidity: 99%   Direction: 160°SSE
Pressure: 29.94"   Gusts: NA
Location:  14.31°N, 88.18°W
Report Text: MHSC 220358Z AUTO 16008KT 9999 CLR 23/22 A2994 RMK AO2 SLP099 T02250223 $
Loading
Personal Weather Stations






























Interactive Weather Map
Tropical Storm Tracking
New forecast layout! Learn more

10-Day Weather Forecast

Advertisements
Track Severe Weather on mobile